KNTU

Oceana NAS / Apollo Soucek Field Airport

Virginia Beach, Virginia, USA
METAR KNTU 190256Z 34008KT 10SM BKN045 BKN055 23/21 A2980 RMK AO2 RAE12 SLP094 P0000 60009 T02280211 51015
Observed Flight Rules
Sep-19 @ 02:56 UTC (22 minutes ago) Visual Flight Rules
Wind Visibility Clouds
340° at 8 knots 10 miles
  • Broken at 4,500' AGL
  • Broken at 5,500' AGL
Temperatures Readings Precipitation
Current 23°C / 73°F
Dewpoint 21°C / 70°F
Humidity 89%
Altimeter 29.8" Hg
Pressure 1009.4 hPa
Elevation 7
Current Rain 0.005
METAR KNTU 190256Z 34008KT 10SM BKN045 BKN055 23/21 A2980 RMK AO2 RAE12 SLP094 P0000 60009 T02280211 51015
Observed Flight Rules
Sep-19 @ 02:56 UTC
(22 minutes ago)
VFR
Wind Visibility
340° at 8 knots 10 miles
Clouds
  • Broken at 4,500' AGL
  • Broken at 5,500' AGL
Temperature Dewpoint
23°C / 73°F 21°C / 70°F
Humidity Altimeter Pressure
89% 29.8" Hg 1009.4 hPa
Current Rain
0.005